Time;durP1;ratioP1;P1;durP2;ratioP2;P2;SDS_P1;SDS_P2;PMS_P1;PMS_P2;Temp;Humidity;BMP_temperature;BMP_pressure;BME280_temperature;BME280_humidity;BME280_pressure;Samples;Min_cycle;Max_cycle;Signal;HPM_P1;HPM_P2
2022/04/16 05:35:39;;;;;;;13.18;10.45;;;22.80;69.30;;;;;;6727736;22;88159;-70
2022/04/16 05:38:41;;;;;;;7.53;6.20;;;22.80;70.80;;;;;;6153714;28;88336;-70
2022/04/16 05:41:43;;;;;;;6.35;5.75;;;22.80;71.90;;;;;;6156747;28;88374;-70
2022/04/16 05:44:45;;;;;;;6.13;5.53;;;22.80;71.40;;;;;;6156327;28;90028;-70
2022/04/16 05:47:47;;;;;;;6.20;5.60;;;22.80;70.70;;;;;;6148194;28;89265;-70
2022/04/16 05:50:51;;;;;;;7.03;5.30;;;22.80;70.30;;;;;;6148609;28;87789;-70
2022/04/16 05:53:54;;;;;;;6.28;5.68;;;22.70;70.10;;;;;;6138864;28;89003;-70
2022/04/16 05:56:57;;;;;;;6.40;5.80;;;22.80;70.20;;;;;;6152437;28;87731;-70
2022/04/16 05:59:59;;;;;;;8.95;5.70;;;22.80;70.30;;;;;;6158107;28;89102;-70
2022/04/16 06:03:01;;;;;;;6.28;5.68;;;22.80;70.30;;;;;;6156498;28;89039;-70
2022/04/16 06:06:05;;;;;;;7.18;5.70;;;22.80;70.30;;;;;;6156221;28;88273;-70
2022/04/16 06:09:07;;;;;;;6.50;5.38;;;22.80;70.30;;;;;;6148267;28;89087;-69
2022/04/16 06:12:09;;;;;;;5.97;5.35;;;22.80;70.30;;;;;;6154759;28;88035;-70
2022/04/16 06:15:11;;;;;;;5.30;4.80;;;22.80;70.30;;;;;;6154618;28;89916;-69
2022/04/16 06:18:14;;;;;;;6.15;5.55;;;22.90;70.40;;;;;;6151310;28;89148;-69
2022/04/16 06:21:17;;;;;;;6.40;5.57;;;22.90;70.50;;;;;;6152255;28;89033;-68
2022/04/16 06:24:19;;;;;;;5.63;5.13;;;22.80;70.50;;;;;;6155072;28;89053;-69
2022/04/16 06:27:22;;;;;;;6.25;5.65;;;22.80;70.50;;;;;;6141346;28;89124;-69
2022/04/16 06:30:25;;;;;;;6.00;5.40;;;22.90;70.60;;;;;;6151385;28;89022;-68
2022/04/16 06:33:27;;;;;;;6.30;5.25;;;22.90;70.60;;;;;;6150314;28;89248;-69
2022/04/16 06:36:30;;;;;;;5.97;5.20;;;22.90;70.70;;;;;;6142641;28;88385;-68
2022/04/16 06:39:32;;;;;;;5.82;4.93;;;22.90;70.80;;;;;;6153656;28;89510;-65
2022/04/16 06:42:53;;;;;;;6.00;4.80;;;22.90;71.00;;;;;;6146981;28;89161;-69
2022/04/16 06:45:55;;;;;;;5.57;5.00;;;22.90;71.30;;;;;;6143676;28;89964;-70
2022/04/16 06:48:57;;;;;;;5.70;5.13;;;22.90;73.00;;;;;;6159393;28;90210;-69
2022/04/16 06:52:00;;;;;;;5.68;5.18;;;22.90;75.70;;;;;;6161644;28;88122;-69
2022/04/16 06:55:03;;;;;;;5.78;4.70;;;22.90;73.30;;;;;;6155048;28;88992;-70
2022/04/16 06:58:05;;;;;;;6.35;4.70;;;23.00;73.00;;;;;;6152200;28;89029;-70
2022/04/16 07:01:07;;;;;;;5.50;5.00;;;23.00;72.90;;;;;;6157104;28;89087;-70
2022/04/16 07:04:09;;;;;;;6.82;4.82;;;23.00;72.70;;;;;;6149437;28;89127;-70
2022/04/16 07:07:14;;;;;;;5.28;4.60;;;23.10;72.70;;;;;;6159273;28;88152;-69
2022/04/16 07:10:16;;;;;;;5.40;4.90;;;23.10;72.70;;;;;;6160470;28;89108;-69
2022/04/16 07:13:18;;;;;;;4.93;4.45;;;23.10;72.80;;;;;;6159971;28;89387;-69
2022/04/16 07:16:20;;;;;;;5.00;4.30;;;23.10;72.70;;;;;;6158470;28;88901;-68
2022/04/16 07:19:22;;;;;;;5.28;4.78;;;23.10;72.50;;;;;;6154675;28;89155;-70
2022/04/16 07:22:25;;;;;;;5.10;4.60;;;23.10;72.30;;;;;;6155974;28;89043;-69
2022/04/16 07:25:27;;;;;;;4.90;4.25;;;23.10;72.30;;;;;;6158570;28;89123;-71
2022/04/16 07:28:29;;;;;;;6.38;4.55;;;23.10;72.30;;;;;;6153581;28;89402;-69
2022/04/16 07:31:31;;;;;;;5.47;4.80;;;23.10;72.50;;;;;;6158158;28;89449;-69
2022/04/16 07:34:33;;;;;;;6.25;4.55;;;23.10;72.30;;;;;;6153675;28;89446;-68
2022/04/16 07:37:37;;;;;;;5.40;4.28;;;23.10;72.20;;;;;;6147744;28;88692;-67
2022/04/16 07:40:39;;;;;;;6.38;4.47;;;23.10;71.90;;;;;;6143301;28;88220;-69
2022/04/16 07:43:41;;;;;;;6.68;4.43;;;23.10;71.60;;;;;;6157391;28;89381;-69
2022/04/16 07:46:43;;;;;;;6.30;4.50;;;23.10;71.60;;;;;;6157285;28;88945;-69
2022/04/16 07:49:45;;;;;;;9.40;4.80;;;23.10;71.80;;;;;;6151124;28;87976;-69
2022/04/16 07:52:49;;;;;;;6.85;4.82;;;23.10;71.80;;;;;;6147541;28;89057;-69
2022/04/16 07:55:51;;;;;;;8.52;5.18;;;23.10;71.90;;;;;;6137116;28;87838;-69
2022/04/16 07:58:55;;;;;;;7.25;4.45;;;23.10;71.90;;;;;;6144398;28;89330;-70
2022/04/16 08:01:57;;;;;;;7.13;4.90;;;23.10;72.00;;;;;;6157118;28;89742;-68
2022/04/16 08:04:59;;;;;;;5.50;4.65;;;23.20;72.00;;;;;;6158852;28;89070;-68
2022/04/16 08:08:04;;;;;;;7.60;4.82;;;23.20;72.00;;;;;;6146181;28;88592;-68
2022/04/16 08:11:06;;;;;;;8.10;4.68;;;23.20;71.50;;;;;;6158646;28;89070;-68
2022/04/16 08:14:08;;;;;;;6.78;4.57;;;23.20;71.40;;;;;;6159649;28;89001;-68
2022/04/16 08:17:10;;;;;;;7.93;4.90;;;23.20;71.20;;;;;;6156346;28;90042;-68
2022/04/16 08:20:12;;;;;;;7.63;4.50;;;23.30;71.20;;;;;;6159985;28;89113;-69
2022/04/16 08:23:17;;;;;;;8.13;4.82;;;23.20;71.10;;;;;;6149746;28;87966;-68
2022/04/16 08:26:19;;;;;;;10.27;5.63;;;23.30;71.00;;;;;;6134639;28;88009;-69
2022/04/16 08:29:22;;;;;;;14.98;6.18;;;23.30;71.20;;;;;;6151649;28;89089;-68
2022/04/16 08:32:24;;;;;;;12.80;5.90;;;23.30;71.20;;;;;;6158666;28;89199;-69
2022/04/16 08:35:26;;;;;;;10.65;5.75;;;23.30;71.20;;;;;;6155791;28;89033;-68
2022/04/16 08:38:29;;;;;;;11.73;6.07;;;23.30;71.30;;;;;;6157946;28;88351;-68
2022/04/16 08:41:33;;;;;;;11.77;5.72;;;23.30;71.70;;;;;;6146748;28;89238;-68
2022/04/16 08:44:36;;;;;;;11.40;5.78;;;23.20;71.50;;;;;;6142600;28;89107;-69
2022/04/16 08:47:39;;;;;;;11.98;5.50;;;23.20;71.30;;;;;;6140166;28;90309;-69
2022/04/16 08:50:42;;;;;;;10.07;5.32;;;23.20;71.40;;;;;;6156998;28;89162;-69
2022/04/16 08:53:45;;;;;;;9.82;5.35;;;23.30;71.50;;;;;;6146987;28;88984;-70
2022/04/16 08:56:47;;;;;;;10.18;5.30;;;23.20;71.10;;;;;;6157245;28;89068;-69
2022/04/16 08:59:51;;;;;;;9.80;4.78;;;23.30;71.10;;;;;;6148836;28;89127;-69
2022/04/16 09:02:56;;;;;;;9.18;5.40;;;23.30;70.90;;;;;;6155087;28;89406;-68
2022/04/16 09:06:17;;;;;;;8.10;5.10;;;23.30;70.80;;;;;;6148771;28;89499;-68
2022/04/16 09:09:21;;;;;;;9.35;5.13;;;23.30;70.70;;;;;;6148457;28;88270;-68
2022/04/16 09:12:23;;;;;;;8.27;4.80;;;23.30;70.60;;;;;;6154986;28;89128;-68
2022/04/16 09:15:27;;;;;;;7.97;4.70;;;23.40;70.60;;;;;;6150285;28;88002;-68
2022/04/16 09:18:29;;;;;;;8.63;4.85;;;23.40;70.50;;;;;;6146132;28;89012;-69
2022/04/16 09:21:31;;;;;;;8.77;4.70;;;23.40;70.50;;;;;;6147841;28;89086;-68
2022/04/16 09:24:47;;;;;;;7.63;4.43;;;23.40;70.50;;;;;;6149150;28;89067;-68
2022/04/16 09:27:50;;;;;;;7.75;4.32;;;23.40;70.30;;;;;;6145947;28;89096;-68
2022/04/16 09:30:53;;;;;;;7.03;4.45;;;23.40;70.50;;;;;;6144505;28;89091;-69
2022/04/16 09:33:56;;;;;;;5.97;4.47;;;23.40;70.40;;;;;;6157995;28;88121;-69
2022/04/16 09:36:58;;;;;;;8.32;4.30;;;23.40;70.30;;;;;;6145736;28;89156;-69
2022/04/16 09:40:11;;;;;;;6.20;4.22;;;23.40;70.30;;;;;;6157780;28;88387;-68
2022/04/16 09:43:13;;;;;;;6.82;4.65;;;23.40;70.20;;;;;;6144793;28;89474;-68
2022/04/16 09:46:15;;;;;;;5.35;3.95;;;23.40;70.10;;;;;;6137451;28;89029;-69
2022/04/16 09:49:18;;;;;;;7.47;4.18;;;23.40;70.10;;;;;;6149146;28;90031;-68
2022/04/16 09:52:23;;;;;;;7.90;4.13;;;23.40;70.10;;;;;;6155201;28;89282;-68
2022/04/16 09:55:27;;;;;;;6.32;4.07;;;23.40;70.10;;;;;;6155881;28;87973;-69
2022/04/16 09:58:36;;;;;;;6.25;3.97;;;23.40;70.00;;;;;;6146449;28;89653;-68
2022/04/16 10:01:38;;;;;;;5.95;3.92;;;23.40;70.00;;;;;;6147113;28;88147;-68
2022/04/16 10:04:40;;;;;;;5.33;3.83;;;23.40;70.00;;;;;;6162052;28;89451;-69
2022/04/16 10:07:45;;;;;;;6.22;3.55;;;23.40;69.90;;;;;;6160346;28;89604;-68
2022/04/16 10:10:54;;;;;;;5.97;4.10;;;23.40;69.90;;;;;;6162291;28;88680;-68
2022/04/16 10:14:06;;;;;;;5.90;3.92;;;23.40;69.80;;;;;;6160245;28;87833;-68
2022/04/16 10:17:16;;;;;;;5.05;3.80;;;23.40;69.80;;;;;;6162198;28;88300;-68
2022/04/16 10:20:20;;;;;;;5.38;3.67;;;23.40;69.80;;;;;;6154488;28;87814;-68
2022/04/16 10:23:27;;;;;;;5.40;3.83;;;23.50;69.80;;;;;;6149041;28;88000;-68
2022/04/16 10:26:39;;;;;;;5.47;3.58;;;23.40;69.80;;;;;;6148400;28;89519;-67
2022/04/16 10:29:42;;;;;;;5.15;3.30;;;23.40;69.70;;;;;;6147731;28;89061;-68
2022/04/16 10:32:45;;;;;;;5.75;3.33;;;23.50;69.80;;;;;;6155095;28;89039;-69
2022/04/16 10:35:51;;;;;;;5.72;3.70;;;23.40;69.70;;;;;;6161961;28;88657;-69
2022/04/16 10:38:53;;;;;;;5.10;3.60;;;23.50;69.70;;;;;;6148619;28;90593;-68
2022/04/16 10:41:58;;;;;;;5.18;3.72;;;23.40;69.60;;;;;;6160486;28;88073;-67
2022/04/16 10:45:09;;;;;;;5.57;3.70;;;23.50;69.60;;;;;;6142795;28;89112;-68
2022/04/16 10:48:11;;;;;;;4.93;3.30;;;23.50;69.60;;;;;;6156435;28;89395;-67
2022/04/16 10:51:13;;;;;;;4.15;3.15;;;23.50;69.60;;;;;;6147468;28;90044;-68
2022/04/16 10:54:16;;;;;;;5.07;3.40;;;23.50;69.60;;;;;;6161077;28;89053;-68
2022/04/16 10:57:23;;;;;;;4.32;3.15;;;23.50;69.60;;;;;;6161128;28;87958;-68
2022/04/16 11:00:36;;;;;;;4.90;3.40;;;23.50;69.50;;;;;;6161440;28;89422;-68
2022/04/16 11:03:48;;;;;;;4.57;3.42;;;23.50;69.60;;;;;;6143517;28;89186;-68
2022/04/16 11:06:51;;;;;;;4.25;3.10;;;23.50;69.50;;;;;;6150422;28;89305;-68
2022/04/16 11:09:53;;;;;;;4.65;3.20;;;23.50;69.50;;;;;;6159333;28;88241;-68
2022/04/16 11:12:58;;;;;;;5.22;3.15;;;23.50;69.40;;;;;;6160312;28;88366;-67
2022/04/16 11:16:01;;;;;;;4.25;3.28;;;23.40;69.40;;;;;;6135616;28;87843;-68
2022/04/16 11:19:13;;;;;;;3.90;2.90;;;23.50;69.40;;;;;;6135245;28;89091;-68
2022/04/16 11:22:15;;;;;;;3.70;3.10;;;23.50;69.40;;;;;;6146656;28;89031;-68
2022/04/16 11:25:17;;;;;;;3.97;3.00;;;23.50;69.40;;;;;;6149236;28;89007;-68
2022/04/16 11:35:24;;;;;;;3.38;2.78;;;23.50;69.40;;;;;;6148225;28;87350;-68
2022/04/16 11:38:29;;;;;;;3.80;2.83;;;23.50;69.30;;;;;;6160078;28;87997;-68
2022/04/16 11:41:32;;;;;;;4.50;2.72;;;23.50;69.30;;;;;;6160818;28;89068;-68
2022/04/16 11:44:41;;;;;;;3.10;2.75;;;23.50;69.30;;;;;;6154206;28;88423;-68
2022/04/16 11:47:43;;;;;;;3.65;2.60;;;23.50;70.20;;;;;;6155835;28;87347;-68
2022/04/16 11:50:45;;;;;;;3.50;2.80;;;23.50;69.30;;;;;;6149502;28;89651;-68
2022/04/16 11:53:52;;;;;;;4.07;3.05;;;23.50;69.30;;;;;;6158787;28;90387;-68
2022/04/16 11:56:55;;;;;;;3.63;3.00;;;23.50;69.20;;;;;;6160039;28;89055;-68
2022/04/16 11:59:59;;;;;;;3.03;2.60;;;23.50;69.10;;;;;;6157314;28;88879;-68
2022/04/16 12:03:01;;;;;;;3.63;2.40;;;23.50;69.10;;;;;;6158442;28;89508;-68
2022/04/16 12:06:03;;;;;;;3.22;2.65;;;23.50;69.10;;;;;;6147998;28;88986;-68
2022/04/16 12:09:05;;;;;;;3.38;2.78;;;23.60;69.20;;;;;;6156490;28;88364;-68
2022/04/16 12:12:07;;;;;;;3.42;2.70;;;23.60;69.10;;;;;;6159292;28;89062;-68
2022/04/16 12:15:11;;;;;;;4.40;2.60;;;23.50;69.10;;;;;;6152781;28;87222;-68
2022/04/16 12:18:15;;;;;;;3.13;2.80;;;23.60;69.10;;;;;;6139800;28;89016;-68
2022/04/16 12:21:18;;;;;;;3.55;2.75;;;23.60;69.10;;;;;;6155480;28;88278;-68
2022/04/16 12:24:26;;;;;;;2.80;2.47;;;23.60;69.10;;;;;;6149919;28;90001;-68
2022/04/16 12:27:29;;;;;;;3.13;2.63;;;23.60;69.10;;;;;;6146651;28;89270;-68
2022/04/16 12:30:32;;;;;;;3.05;2.45;;;23.60;69.10;;;;;;6145782;28;89403;-68
2022/04/16 12:33:34;;;;;;;3.20;2.50;;;23.60;69.10;;;;;;6133750;28;89109;-68
2022/04/16 12:36:36;;;;;;;2.53;2.28;;;23.60;69.10;;;;;;6157703;28;89127;-68
2022/04/16 12:39:38;;;;;;;2.85;2.40;;;23.60;69.10;;;;;;6149926;28;87904;-68
2022/04/16 12:42:40;;;;;;;3.58;2.30;;;23.60;69.10;;;;;;6154324;28;89399;-68
2022/04/16 12:45:44;;;;;;;2.85;2.50;;;23.50;69.00;;;;;;6150671;28;88320;-68
2022/04/16 12:48:46;;;;;;;3.17;2.13;;;23.60;69.10;;;;;;6157968;28;89086;-67
2022/04/16 12:51:49;;;;;;;2.85;2.40;;;23.60;69.10;;;;;;6136351;28;88012;-68
2022/04/16 12:54:51;;;;;;;3.30;2.35;;;23.60;69.10;;;;;;6156288;28;90070;-68
2022/04/16 12:57:53;;;;;;;2.80;2.40;;;23.60;69.10;;;;;;6145146;28;87977;-67
2022/04/16 13:00:56;;;;;;;2.60;2.10;;;23.60;69.00;;;;;;6157700;28;89000;-68
2022/04/16 13:03:59;;;;;;;2.78;2.42;;;23.60;69.90;;;;;;6140465;28;87598;-68
2022/04/16 13:07:02;;;;;;;2.47;2.28;;;23.60;69.00;;;;;;6149148;28;88751;-68
2022/04/16 13:10:05;;;;;;;2.33;2.13;;;23.60;69.00;;;;;;6143952;28;88323;-68
2022/04/16 13:13:07;;;;;;;3.40;2.30;;;23.60;68.90;;;;;;6137386;28;89151;-67
2022/04/16 13:16:11;;;;;;;3.55;2.30;;;23.60;68.90;;;;;;6157036;28;88232;-68
2022/04/16 13:19:13;;;;;;;2.63;2.03;;;23.60;69.30;;;;;;6146951;28;89021;-68
2022/04/16 13:22:15;;;;;;;2.78;2.03;;;23.60;69.20;;;;;;6157936;28;89166;-68
2022/04/16 13:25:17;;;;;;;3.28;2.08;;;23.60;69.20;;;;;;6138243;28;89225;-68
2022/04/16 13:28:19;;;;;;;2.78;2.10;;;23.60;69.20;;;;;;6155656;28;89084;-68
2022/04/16 13:31:22;;;;;;;5.25;2.45;;;23.60;69.30;;;;;;6145553;28;89066;-69
2022/04/16 13:34:24;;;;;;;3.72;2.35;;;23.60;69.50;;;;;;6139666;28;88121;-68
2022/04/16 13:37:26;;;;;;;3.47;2.30;;;23.60;70.00;;;;;;6157237;28;89045;-67
2022/04/16 13:43:48;;;;;;;6.50;2.50;;;23.60;70.60;;;;;;6142301;28;87378;-68
2022/04/16 13:46:53;;;;;;;5.47;2.30;;;23.60;70.80;;;;;;6137613;28;88385;-68
2022/04/16 13:49:56;;;;;;;6.38;2.70;;;23.60;70.90;;;;;;6140853;28;89192;-69
2022/04/16 13:52:59;;;;;;;5.80;2.50;;;23.60;71.10;;;;;;6135886;28;89018;-68
2022/04/16 13:56:01;;;;;;;2.95;2.30;;;23.60;71.70;;;;;;6149829;28;90423;-68
2022/04/16 13:59:03;;;;;;;4.13;2.13;;;23.60;72.00;;;;;;6144725;28;87864;-68
2022/04/16 14:02:08;;;;;;;4.03;2.30;;;23.70;71.80;;;;;;6151718;28;89413;-68
2022/04/16 14:08:30;;;;;;;5.30;2.20;;;23.70;72.10;;;;;;6156967;28;87256;-68
2022/04/16 14:11:34;;;;;;;4.40;2.17;;;23.70;72.20;;;;;;6157009;28;89435;-68
2022/04/16 14:14:36;;;;;;;3.58;2.20;;;23.60;72.10;;;;;;6157451;28;89088;-68
2022/04/16 14:17:39;;;;;;;3.42;2.33;;;23.70;72.20;;;;;;6144117;28;88325;-67
2022/04/16 14:20:42;;;;;;;4.50;2.30;;;23.70;72.10;;;;;;6153643;28;88942;-70
2022/04/16 14:23:44;;;;;;;2.95;2.00;;;23.70;72.20;;;;;;6156522;28;89025;-70
2022/04/16 14:26:46;;;;;;;4.25;2.55;;;23.70;72.10;;;;;;6150621;28;88954;-69
2022/04/16 14:29:49;;;;;;;3.95;2.10;;;23.60;72.00;;;;;;6136729;28;88467;-69
2022/04/16 14:32:54;;;;;;;2.63;2.17;;;23.70;72.00;;;;;;6155369;28;88047;-69
2022/04/16 14:35:56;;;;;;;2.83;2.10;;;23.70;71.80;;;;;;6156314;28;89063;-68
2022/04/16 14:38:59;;;;;;;3.55;2.05;;;23.70;71.80;;;;;;6158278;28;89074;-68
2022/04/16 14:42:02;;;;;;;2.65;2.03;;;23.70;71.70;;;;;;6149423;28;89214;-69
2022/04/16 14:45:04;;;;;;;3.35;1.90;;;23.70;72.60;;;;;;6155530;28;89031;-70
2022/04/16 14:48:09;;;;;;;6.13;3.50;;;23.70;71.80;;;;;;6156575;28;88642;-70
2022/04/16 14:51:11;;;;;;;5.05;2.22;;;23.70;74.90;;;;;;6153145;28;89227;-70
2022/04/16 14:54:13;;;;;;;3.85;2.45;;;23.70;73.50;;;;;;6156988;28;87890;-70
2022/04/16 14:57:15;;;;;;;3.85;1.95;;;23.70;72.70;;;;;;6150933;28;90163;-70
2022/04/16 15:00:18;;;;;;;3.20;2.13;;;23.70;72.30;;;;;;6148210;28;89209;-71
2022/04/16 15:03:21;;;;;;;3.08;2.08;;;23.80;72.20;;;;;;6159216;28;89148;-70
2022/04/16 15:06:23;;;;;;;3.83;1.80;;;23.80;72.10;;;;;;6148112;28;89088;-71
2022/04/16 15:09:25;;;;;;;2.45;2.00;;;23.80;72.00;;;;;;6160247;28;88626;-70
2022/04/16 15:12:27;;;;;;;9.52;5.20;;;23.80;72.80;;;;;;6149907;28;89100;-71
2022/04/16 15:15:29;;;;;;;19.95;10.55;;;23.90;72.00;;;;;;6146966;28;87964;-70
2022/04/16 15:18:34;;;;;;;22.25;11.30;;;23.90;71.90;;;;;;6157446;28;88339;-70
2022/04/16 15:21:35;;;;;;;24.63;12.23;;;23.90;71.80;;;;;;6157439;28;88788;-70
2022/04/16 15:24:37;;;;;;;25.15;11.90;;;23.90;71.80;;;;;;6159180;28;87956;-70
2022/04/16 15:27:40;;;;;;;20.77;11.38;;;23.90;71.60;;;;;;6156750;28;89888;-70
2022/04/16 15:30:42;;;;;;;22.33;11.82;;;23.90;71.50;;;;;;6146469;28;89106;-70
2022/04/16 15:33:45;;;;;;;23.25;11.90;;;23.90;71.50;;;;;;6147954;28;89017;-70
2022/04/16 15:36:49;;;;;;;24.60;10.63;;;23.90;71.50;;;;;;6147900;28;88291;-69
2022/04/16 15:39:51;;;;;;;21.02;11.38;;;23.90;71.40;;;;;;6135223;28;89084;-70
2022/04/16 15:42:55;;;;;;;20.45;11.02;;;23.90;71.30;;;;;;6145837;28;89392;-70
2022/04/16 15:45:57;;;;;;;18.55;10.52;;;23.90;71.30;;;;;;6136773;28;89140;-69
2022/04/16 15:49:00;;;;;;;18.70;10.15;;;23.90;71.40;;;;;;6156336;28;88453;-70
2022/04/16 15:52:02;;;;;;;15.50;9.00;;;23.90;71.10;;;;;;6158801;28;89082;-68
2022/04/16 15:55:05;;;;;;;15.60;8.25;;;23.90;70.10;;;;;;6142440;28;88084;-70
2022/04/16 15:58:07;;;;;;;11.90;6.93;;;23.90;69.30;;;;;;6139457;28;88817;-68
2022/04/16 16:01:09;;;;;;;13.50;7.07;;;23.90;68.30;;;;;;6155227;28;87960;-70
2022/04/16 16:07:32;;;;;;;10.27;5.60;;;23.90;68.60;;;;;;6146240;28;88920;-66
2022/04/16 16:10:33;;;;;;;8.75;5.18;;;23.90;67.00;;;;;;6159101;28;89098;-71
2022/04/16 16:13:35;;;;;;;8.57;4.90;;;23.90;65.60;;;;;;6149243;28;89121;-70
2022/04/16 16:16:38;;;;;;;165.07;147.52;;;23.90;64.20;;;;;;6142483;28;89137;-65
2022/04/16 16:19:41;;;;;;;33.63;23.67;;;23.90;64.90;;;;;;6140737;28;88350;-70
2022/04/16 16:22:44;;;;;;;20.02;14.00;;;23.90;67.90;;;;;;6132785;28;89162;-70
2022/04/16 16:25:46;;;;;;;12.60;9.18;;;24.00;67.00;;;;;;6141394;28;89182;-68
2022/04/16 16:28:48;;;;;;;8.02;5.43;;;24.00;67.40;;;;;;6139139;28;90071;-68
2022/04/16 16:31:50;;;;;;;8.30;5.00;;;24.00;63.20;;;;;;6157211;28;89339;-69
2022/04/16 16:34:54;;;;;;;8.20;6.07;;;24.00;62.80;;;;;;6147257;28;89874;-76
2022/04/16 16:37:56;;;;;;;7.80;6.45;;;24.10;65.70;;;;;;6154335;28;87991;-69
2022/04/16 16:41:00;;;;;;;6.35;4.90;;;24.10;66.00;;;;;;6145141;28;89023;-76
2022/04/16 16:44:02;;;;;;;5.65;4.35;;;24.10;63.00;;;;;;6134970;28;89024;-70
2022/04/16 16:47:05;;;;;;;9.32;8.43;;;24.20;61.60;;;;;;6153141;28;88999;-74
2022/04/16 16:50:09;;;;;;;6.55;5.15;;;24.30;70.00;;;;;;6152267;28;88325;-70
2022/04/16 16:53:12;;;;;;;5.63;4.20;;;24.40;63.30;;;;;;6135741;28;89336;-72
2022/04/16 16:56:14;;;;;;;6.65;4.15;;;24.40;61.40;;;;;;6153807;28;89173;-72
2022/04/16 16:59:16;;;;;;;3.92;3.53;;;24.40;60.50;;;;;;6150115;28;90038;-73
2022/04/16 17:05:39;;;;;;;3.92;3.15;;;24.30;59.10;;;;;;6155787;28;87823;-76
2022/04/16 17:08:41;;;;;;;4.55;3.65;;;24.30;59.30;;;;;;6155130;28;89090;-74
2022/04/16 17:11:43;;;;;;;9.20;3.38;;;24.30;61.10;;;;;;6153006;28;89121;-71
2022/04/16 17:21:26;;;;;;;3.45;2.75;;;24.70;58.40;;;;;;6159954;28;86585;-72
2022/04/16 17:24:28;;;;;;;2.88;2.13;;;24.70;57.90;;;;;;6151716;28;89110;-72
2022/04/16 17:27:30;;;;;;;2.55;2.35;;;24.70;57.20;;;;;;6135530;28;88454;-70
2022/04/16 17:30:32;;;;;;;2.42;2.15;;;24.80;56.70;;;;;;6156318;28;90483;-72
2022/04/16 17:33:35;;;;;;;2.95;2.10;;;24.80;56.60;;;;;;6156206;28;89191;-71
2022/04/16 17:36:39;;;;;;;3.25;2.42;;;24.80;56.10;;;;;;6157386;28;89140;-70
2022/04/16 17:39:40;;;;;;;2.30;2.10;;;24.80;57.60;;;;;;6156698;28;89050;-66
2022/04/16 17:42:42;;;;;;;4.13;2.55;;;24.70;56.60;;;;;;6153449;28;89338;-70
2022/04/16 17:45:46;;;;;;;3.55;2.03;;;24.70;57.90;;;;;;6150983;28;89445;-72
2022/04/16 17:48:47;;;;;;;2.63;1.88;;;24.60;58.10;;;;;;6145198;28;87928;-71
2022/04/16 17:51:53;;;;;;;3.78;2.00;;;24.60;56.90;;;;;;6144702;28;88300;-72
2022/04/16 17:54:56;;;;;;;2.08;1.70;;;24.50;56.60;;;;;;6155707;28;89082;-71
2022/04/16 17:57:58;;;;;;;2.92;1.88;;;24.40;57.70;;;;;;6147087;28;89409;-71
2022/04/16 18:01:00;;;;;;;2.33;2.00;;;24.40;58.50;;;;;;6150900;28;89739;-72
2022/04/16 18:04:03;;;;;;;2.83;1.80;;;24.40;59.10;;;;;;6135048;28;89155;-71
2022/04/16 18:07:11;;;;;;;3.00;2.00;;;24.30;59.60;;;;;;6143023;28;87839;-72
2022/04/16 18:10:15;;;;;;;2.05;1.85;;;24.30;59.80;;;;;;6151251;28;89064;-72
2022/04/16 18:13:17;;;;;;;2.58;1.75;;;24.30;60.20;;;;;;6133233;28;88430;-72
2022/04/16 18:16:19;;;;;;;2.38;2.17;;;24.30;60.40;;;;;;6150345;28;89129;-71
2022/04/16 18:19:22;;;;;;;2.10;1.90;;;24.20;60.70;;;;;;6139263;28;89038;-71
2022/04/16 18:22:25;;;;;;;1.75;1.65;;;24.30;61.10;;;;;;6142938;28;88212;-72
2022/04/16 18:25:27;;;;;;;1.90;1.70;;;24.20;61.30;;;;;;6148578;28;89107;-72
2022/04/16 18:28:29;;;;;;;2.47;1.73;;;24.10;61.60;;;;;;6139798;28;89445;-72
2022/04/16 18:31:32;;;;;;;2.70;1.80;;;24.20;61.80;;;;;;6133217;28;90318;-72
2022/04/16 18:34:36;;;;;;;2.85;1.80;;;24.20;62.00;;;;;;6158534;28;87931;-71
2022/04/16 18:37:40;;;;;;;1.90;1.70;;;24.20;62.30;;;;;;6139267;28;89109;-71
2022/04/16 18:40:42;;;;;;;2.20;1.70;;;24.20;62.30;;;;;;6156694;28;89035;-72
2022/04/16 18:43:44;;;;;;;3.03;1.90;;;24.20;62.40;;;;;;6156972;28;89051;-73
2022/04/16 18:46:48;;;;;;;1.92;1.73;;;24.20;62.50;;;;;;6150201;28;89103;-73
2022/04/16 18:49:50;;;;;;;2.00;1.80;;;24.20;62.80;;;;;;6156386;28;87980;-71
2022/04/16 18:52:54;;;;;;;1.80;1.70;;;24.20;62.90;;;;;;6156584;28;88875;-74
2022/04/16 18:55:56;;;;;;;2.35;1.70;;;24.30;63.20;;;;;;6145471;28;89130;-72
2022/04/16 18:59:16;;;;;;;1.50;1.40;;;24.20;63.20;;;;;;6156134;28;89377;-72
2022/04/16 19:09:01;;;;;;;2.03;1.80;;;24.20;63.60;;;;;;6123676;28;88600;-73
2022/04/16 19:12:04;;;;;;;1.70;1.60;;;24.20;63.70;;;;;;6147457;28;89117;-74
2022/04/16 19:15:07;;;;;;;1.60;1.50;;;24.20;63.80;;;;;;6148909;28;89285;-73
2022/04/16 19:18:11;;;;;;;1.90;1.70;;;24.30;64.00;;;;;;6157472;28;89072;-73
2022/04/16 19:21:13;;;;;;;1.65;1.55;;;24.20;64.10;;;;;;6155076;28;89013;-75
2022/04/16 19:24:17;;;;;;;1.80;1.60;;;24.30;64.20;;;;;;6158593;28;88659;-74
2022/04/16 19:27:19;;;;;;;1.63;1.52;;;24.30;64.30;;;;;;6155162;28;89269;-74
2022/04/16 19:30:40;;;;;;;1.65;1.55;;;24.20;64.40;;;;;;6157718;28;89053;-73
2022/04/16 19:33:42;;;;;;;1.60;1.50;;;24.20;64.50;;;;;;6145254;28;88840;-74
2022/04/16 19:36:44;;;;;;;1.95;1.48;;;24.20;64.60;;;;;;6132396;28;89973;-73
2022/04/16 19:39:47;;;;;;;1.50;1.40;;;24.30;64.70;;;;;;6146299;28;89049;-75
2022/04/16 19:42:49;;;;;;;1.70;1.58;;;24.20;64.70;;;;;;6157243;28;89020;-73
2022/04/16 19:45:51;;;;;;;2.28;1.52;;;24.20;64.80;;;;;;6142530;28;88935;-73
2022/04/16 19:48:55;;;;;;;1.50;1.40;;;24.20;64.90;;;;;;6150964;28;87972;-73
2022/04/16 19:51:57;;;;;;;1.63;1.45;;;24.20;65.00;;;;;;6157084;28;89299;-73
2022/04/16 19:55:00;;;;;;;1.65;1.30;;;24.20;65.00;;;;;;6156090;28;87500;-73
2022/04/16 19:58:02;;;;;;;1.80;1.70;;;24.20;65.10;;;;;;6156297;28;89090;-74
2022/04/16 20:01:07;;;;;;;1.60;1.50;;;24.20;65.20;;;;;;6155954;28;89237;-73
2022/04/16 20:04:09;;;;;;;1.75;1.63;;;24.20;65.40;;;;;;6153479;28;89966;-73
2022/04/16 20:07:13;;;;;;;7.43;4.72;;;24.20;65.40;;;;;;6154476;28;89113;-71
2022/04/16 20:13:36;;;;;;;20.33;12.07;;;24.20;66.80;;;;;;6156811;28;87484;-73
2022/04/16 20:16:38;;;;;;;24.67;13.75;;;24.20;66.50;;;;;;6140758;28;89476;-72
2022/04/16 20:19:40;;;;;;;20.63;13.27;;;24.20;66.20;;;;;;6144334;28;89098;-73
2022/04/16 20:22:42;;;;;;;24.55;14.88;;;24.20;66.40;;;;;;6157729;28;89111;-72
2022/04/16 20:25:46;;;;;;;24.25;14.38;;;24.20;66.40;;;;;;6155033;28;87257;-73
2022/04/16 20:28:48;;;;;;;25.77;14.07;;;24.20;66.70;;;;;;6157934;28;88022;-71
2022/04/16 20:31:51;;;;;;;21.58;14.48;;;24.20;66.80;;;;;;6156461;28;89091;-71
2022/04/16 20:34:53;;;;;;;17.55;12.60;;;24.10;66.80;;;;;;6142338;28;90339;-70
2022/04/16 20:37:55;;;;;;;18.50;11.98;;;24.20;66.40;;;;;;6159205;28;89108;-70
2022/04/16 20:47:37;;;;;;;13.63;9.80;;;24.10;63.80;;;;;;6144636;28;87869;-70
2022/04/16 20:53:14;;;;;;;12.82;9.15;;;24.10;62.90;;;;;;6154404;28;89404;-70
2022/04/16 20:57:23;;;;;;;9.93;8.38;;;24.00;62.00;;;;;;6156294;28;86606;-70
2022/04/16 21:00:26;;;;;;;10.77;7.90;;;24.00;61.80;;;;;;6148382;28;89279;-70
2022/04/16 21:03:28;;;;;;;8.82;7.15;;;24.00;61.40;;;;;;6153343;28;89141;-69
2022/04/16 21:06:31;;;;;;;9.70;7.15;;;23.90;60.60;;;;;;6157476;28;89999;-70
2022/04/16 21:09:33;;;;;;;10.63;7.72;;;23.90;60.40;;;;;;6145505;28;89173;-69
2022/04/16 21:12:40;;;;;;;9.75;7.90;;;23.90;61.10;;;;;;6156243;28;88169;-69
2022/04/16 21:15:43;;;;;;;9.60;8.32;;;23.90;61.60;;;;;;6157558;28;89197;-70
2022/04/16 21:18:45;;;;;;;12.80;8.75;;;23.90;61.90;;;;;;6149179;28;89185;-70
2022/04/16 21:21:47;;;;;;;9.90;8.18;;;23.90;62.10;;;;;;6152227;28;89082;-70
